sensor_id;sensor_type;location;lat;lon;timestamp;pressure;altitude;pressure_sealevel;temperature;humidity
17260;BME280;8746;49.230;9.220;2023-01-31T00:01:22;100860.63;;;1.67;100.00
17260;BME280;8746;49.230;9.220;2023-01-31T00:03:52;100868.34;;;1.59;100.00
17260;BME280;8746;49.230;9.220;2023-01-31T00:08:46;100869.13;;;1.54;100.00
17260;BME280;8746;49.230;9.220;2023-01-31T00:11:13;100857.88;;;1.53;100.00
17260;BME280;8746;49.230;9.220;2023-01-31T00:13:39;100856.91;;;1.47;100.00
17260;BME280;8746;49.230;9.220;2023-01-31T00:16:06;100860.34;;;1.42;100.00
17260;BME280;8746;49.230;9.220;2023-01-31T00:18:32;100859.44;;;1.40;100.00
17260;BME280;8746;49.230;9.220;2023-01-31T00:20:57;100855.09;;;1.39;100.00
17260;BME280;8746;49.230;9.220;2023-01-31T00:23:23;100850.81;;;1.43;100.00
17260;BME280;8746;49.230;9.220;2023-01-31T00:25:48;100848.19;;;1.40;100.00
17260;BME280;8746;49.230;9.220;2023-01-31T00:28:14;100848.25;;;1.44;100.00
17260;BME280;8746;49.230;9.220;2023-01-31T00:30:39;100854.25;;;1.40;100.00
17260;BME280;8746;49.230;9.220;2023-01-31T00:33:04;100853.38;;;1.41;100.00
17260;BME280;8746;49.230;9.220;2023-01-31T00:35:30;100860.28;;;1.36;100.00
17260;BME280;8746;49.230;9.220;2023-01-31T00:37:55;100846.34;;;1.31;100.00
17260;BME280;8746;49.230;9.220;2023-01-31T00:40:21;100848.09;;;1.32;100.00
17260;BME280;8746;49.230;9.220;2023-01-31T00:42:46;100856.81;;;1.37;100.00
17260;BME280;8746;49.230;9.220;2023-01-31T00:45:11;100859.38;;;1.36;100.00
17260;BME280;8746;49.230;9.220;2023-01-31T00:47:37;100855.00;;;1.33;100.00
17260;BME280;8746;49.230;9.220;2023-01-31T00:50:03;100852.41;;;1.33;100.00
17260;BME280;8746;49.230;9.220;2023-01-31T00:52:29;100850.72;;;1.34;100.00
17260;BME280;8746;49.230;9.220;2023-01-31T00:54:54;100861.13;;;1.37;100.00
17260;BME280;8746;49.230;9.220;2023-01-31T00:57:20;100852.47;;;1.38;100.00
17260;BME280;8746;49.230;9.220;2023-01-31T00:59:45;100859.44;;;1.40;100.00
17260;BME280;8746;49.230;9.220;2023-01-31T01:02:11;100862.03;;;1.39;100.00
17260;BME280;8746;49.230;9.220;2023-01-31T01:04:36;100858.63;;;1.44;100.00
17260;BME280;8746;49.230;9.220;2023-01-31T01:07:01;100863.91;;;1.51;100.00
17260;BME280;8746;49.230;9.220;2023-01-31T01:09:27;100864.75;;;1.50;100.00
17260;BME280;8746;49.230;9.220;2023-01-31T01:11:52;100869.06;;;1.48;100.00
17260;BME280;8746;49.230;9.220;2023-01-31T01:14:18;100858.72;;;1.51;100.00
17260;BME280;8746;49.230;9.220;2023-01-31T01:16:43;100864.78;;;1.53;100.00
17260;BME280;8746;49.230;9.220;2023-01-31T01:19:16;100860.41;;;1.49;100.00
17260;BME280;8746;49.230;9.220;2023-01-31T01:21:42;100856.88;;;1.43;100.00
17260;BME280;8746;49.230;9.220;2023-01-31T01:24:14;100865.50;;;1.39;100.00
17260;BME280;8746;49.230;9.220;2023-01-31T01:26:40;100870.69;;;1.38;100.00
17260;BME280;8746;49.230;9.220;2023-01-31T01:29:05;100865.56;;;1.46;100.00
17260;BME280;8746;49.230;9.220;2023-01-31T01:31:31;100867.25;;;1.40;100.00
17260;BME280;8746;49.230;9.220;2023-01-31T01:33:59;100871.50;;;1.34;100.00
17260;BME280;8746;49.230;9.220;2023-01-31T01:36:25;100871.50;;;1.34;100.00
17260;BME280;8746;49.230;9.220;2023-01-31T01:38:51;100876.72;;;1.34;100.00
17260;BME280;8746;49.230;9.220;2023-01-31T01:41:18;100881.84;;;1.31;100.00
17260;BME280;8746;49.230;9.220;2023-01-31T01:43:47;100879.28;;;1.32;100.00
17260;BME280;8746;49.230;9.220;2023-01-31T01:48:47;100881.06;;;1.36;100.00
17260;BME280;8746;49.230;9.220;2023-01-31T01:51:15;100872.38;;;1.34;100.00
17260;BME280;8746;49.230;9.220;2023-01-31T01:53:46;100877.56;;;1.34;100.00
17260;BME280;8746;49.230;9.220;2023-01-31T01:56:20;100877.53;;;1.31;100.00
17260;BME280;8746;49.230;9.220;2023-01-31T01:59:11;100875.78;;;1.30;100.00
17260;BME280;8746;49.230;9.220;2023-01-31T02:01:39;100875.78;;;1.30;100.00
17260;BME280;8746;49.230;9.220;2023-01-31T02:04:06;100872.38;;;1.34;100.00
17260;BME280;8746;49.230;9.220;2023-01-31T02:06:33;100877.53;;;1.31;100.00
17260;BME280;8746;49.230;9.220;2023-01-31T02:08:59;100882.75;;;1.31;100.00
17260;BME280;8746;49.230;9.220;2023-01-31T02:11:29;100887.03;;;1.29;100.00
17260;BME280;8746;49.230;9.220;2023-01-31T02:14:00;100890.63;;;1.40;100.00
17260;BME280;8746;49.230;9.220;2023-01-31T02:16:25;100894.91;;;1.35;100.00
17260;BME280;8746;49.230;9.220;2023-01-31T02:18:51;100894.06;;;1.35;100.00
17260;BME280;8746;49.230;9.220;2023-01-31T02:21:43;100898.34;;;1.31;100.00
17260;BME280;8746;49.230;9.220;2023-01-31T02:25:18;100898.38;;;1.36;100.00
17260;BME280;8746;49.230;9.220;2023-01-31T02:27:33;100894.84;;;1.29;100.00
17260;BME280;8746;49.230;9.220;2023-01-31T02:35:12;100898.25;;;1.25;100.00
17260;BME280;8746;49.230;9.220;2023-01-31T02:37:56;100908.75;;;1.34;100.00
17260;BME280;8746;49.230;9.220;2023-01-31T02:43:11;100910.44;;;1.29;100.00
17260;BME280;8746;49.230;9.220;2023-01-31T02:45:52;100910.50;;;1.32;100.00
17260;BME280;8746;49.230;9.220;2023-01-31T02:48:51;100905.25;;;1.29;100.00
17260;BME280;8746;49.230;9.220;2023-01-31T02:51:24;100911.44;;;1.39;100.00
17260;BME280;8746;49.230;9.220;2023-01-31T02:54:14;100899.03;;;1.18;100.00
17260;BME280;8746;49.230;9.220;2023-01-31T02:56:45;100911.19;;;1.20;100.00
17260;BME280;8746;49.230;9.220;2023-01-31T02:59:20;100898.13;;;1.16;100.00
17260;BME280;8746;49.230;9.220;2023-01-31T03:01:57;100907.69;;;1.18;100.00
17260;BME280;8746;49.230;9.220;2023-01-31T03:04:23;100910.28;;;1.18;100.00
17260;BME280;8746;49.230;9.220;2023-01-31T03:06:55;100899.97;;;1.23;100.00
17260;BME280;8746;49.230;9.220;2023-01-31T03:16:11;100901.53;;;1.11;100.00
17260;BME280;8746;49.230;9.220;2023-01-31T03:21:32;100902.31;;;1.06;100.00
17260;BME280;8746;49.230;9.220;2023-01-31T03:23:58;100908.38;;;1.06;100.00
17260;BME280;8746;49.230;9.220;2023-01-31T03:26:24;100905.75;;;1.02;100.00
17260;BME280;8746;49.230;9.220;2023-01-31T03:28:53;100909.19;;;1.01;100.00
17260;BME280;8746;49.230;9.220;2023-01-31T03:31:25;100919.50;;;0.96;100.00
17260;BME280;8746;49.230;9.220;2023-01-31T03:33:59;100917.72;;;0.92;100.00
17260;BME280;8746;49.230;9.220;2023-01-31T03:39:23;100914.16;;;0.85;100.00
17260;BME280;8746;49.230;9.220;2023-01-31T03:42:07;100917.50;;;0.79;100.00
17260;BME280;8746;49.230;9.220;2023-01-31T03:44:52;100927.00;;;0.76;100.00
17260;BME280;8746;49.230;9.220;2023-01-31T03:47:36;100929.59;;;0.76;100.00
17260;BME280;8746;49.230;9.220;2023-01-31T03:50:11;100934.66;;;0.70;100.00
17260;BME280;8746;49.230;9.220;2023-01-31T03:52:43;100937.31;;;0.71;100.00
17260;BME280;8746;49.230;9.220;2023-01-31T03:55:20;100936.38;;;0.66;100.00
17260;BME280;8746;49.230;9.220;2023-01-31T03:57:51;100935.56;;;0.70;100.00
17260;BME280;8746;49.230;9.220;2023-01-31T04:00:20;100941.53;;;0.64;100.00
17260;BME280;8746;49.230;9.220;2023-01-31T04:02:49;100935.41;;;0.61;100.00
17260;BME280;8746;49.230;9.220;2023-01-31T04:05:21;100944.97;;;0.63;100.00
17260;BME280;8746;49.230;9.220;2023-01-31T04:07:49;100945.94;;;0.70;100.00
17260;BME280;8746;49.230;9.220;2023-01-31T04:10:16;100946.69;;;0.63;100.00
17260;BME280;8746;49.230;9.220;2023-01-31T04:12:43;100952.81;;;0.67;100.00
17260;BME280;8746;49.230;9.220;2023-01-31T04:15:10;100966.72;;;0.70;100.00
17260;BME280;8746;49.230;9.220;2023-01-31T04:17:36;100973.56;;;0.65;100.00
17260;BME280;8746;49.230;9.220;2023-01-31T04:20:01;100974.34;;;0.61;100.00
17260;BME280;8746;49.230;9.220;2023-01-31T04:22:27;100965.72;;;0.62;100.00
17260;BME280;8746;49.230;9.220;2023-01-31T04:24:52;100973.53;;;0.63;100.00
17260;BME280;8746;49.230;9.220;2023-01-31T04:27:18;100963.22;;;0.67;100.00
17260;BME280;8746;49.230;9.220;2023-01-31T04:29:43;100963.88;;;0.56;100.00
17260;BME280;8746;49.230;9.220;2023-01-31T04:32:09;100950.97;;;0.61;100.00
17260;BME280;8746;49.230;9.220;2023-01-31T04:34:34;100948.25;;;0.53;100.00
17260;BME280;8746;49.230;9.220;2023-01-31T04:37:00;100949.19;;;0.57;100.00
17260;BME280;8746;49.230;9.220;2023-01-31T04:39:25;100947.53;;;0.60;100.00
17260;BME280;8746;49.230;9.220;2023-01-31T04:41:51;100954.41;;;0.60;100.00
17260;BME280;8746;49.230;9.220;2023-01-31T04:44:16;100949.19;;;0.57;100.00
17260;BME280;8746;49.230;9.220;2023-01-31T04:46:42;100950.88;;;0.55;100.00
17260;BME280;8746;49.230;9.220;2023-01-31T04:49:07;100950.94;;;0.58;100.00
17260;BME280;8746;49.230;9.220;2023-01-31T04:51:33;100948.19;;;0.50;100.00
17260;BME280;8746;49.230;9.220;2023-01-31T04:53:59;100949.09;;;0.51;100.00
17260;BME280;8746;49.230;9.220;2023-01-31T04:56:24;100936.19;;;0.55;100.00
17260;BME280;8746;49.230;9.220;2023-01-31T04:58:50;100942.94;;;0.45;100.00
17260;BME280;8746;49.230;9.220;2023-01-31T05:01:15;100949.75;;;0.40;100.00
17260;BME280;8746;49.230;9.220;2023-01-31T05:03:40;100942.88;;;0.42;100.00
17260;BME280;8746;49.230;9.220;2023-01-31T05:06:06;100942.88;;;0.42;100.00
17260;BME280;8746;49.230;9.220;2023-01-31T05:08:32;100953.25;;;0.41;100.00
17260;BME280;8746;49.230;9.220;2023-01-31T05:11:03;100947.34;;;0.50;100.00
17260;BME280;8746;49.230;9.220;2023-01-31T05:13:30;100950.78;;;0.50;100.00
17260;BME280;8746;49.230;9.220;2023-01-31T05:15:56;100932.63;;;0.50;100.00
17260;BME280;8746;49.230;9.220;2023-01-31T05:18:23;100931.59;;;0.40;100.00
17260;BME280;8746;49.230;9.220;2023-01-31T05:20:48;100934.16;;;0.37;100.00
17260;BME280;8746;49.230;9.220;2023-01-31T05:23:15;100938.44;;;0.35;100.00
17260;BME280;8746;49.230;9.220;2023-01-31T05:25:40;100950.38;;;0.25;100.00
17260;BME280;8746;49.230;9.220;2023-01-31T05:28:06;100949.03;;;0.47;100.00
17260;BME280;8746;49.230;9.220;2023-01-31T05:30:31;100949.75;;;0.39;100.00
17260;BME280;8746;49.230;9.220;2023-01-31T05:32:57;100944.53;;;0.37;100.00
17260;BME280;8746;49.230;9.220;2023-01-31T05:35:22;100949.81;;;0.42;100.00
17260;BME280;8746;49.230;9.220;2023-01-31T05:37:47;100949.00;;;0.44;100.00
17260;BME280;8746;49.230;9.220;2023-01-31T05:40:15;100947.22;;;0.43;100.00
17260;BME280;8746;49.230;9.220;2023-01-31T05:42:41;100943.78;;;0.44;100.00
17260;BME280;8746;49.230;9.220;2023-01-31T05:45:08;100952.34;;;0.40;100.00
17260;BME280;8746;49.230;9.220;2023-01-31T05:47:34;100955.34;;;0.63;100.00
17260;BME280;8746;49.230;9.220;2023-01-31T05:50:00;100949.06;;;0.49;100.00
17260;BME280;8746;49.230;9.220;2023-01-31T05:52:25;100957.66;;;0.46;100.00
17260;BME280;8746;49.230;9.220;2023-01-31T05:54:51;100954.38;;;0.57;100.00
17260;BME280;8746;49.230;9.220;2023-01-31T05:57:17;100956.03;;;0.52;100.00
17260;BME280;8746;49.230;9.220;2023-01-31T05:59:42;100945.59;;;0.48;100.00
17260;BME280;8746;49.230;9.220;2023-01-31T06:02:08;100947.34;;;0.50;100.00
17260;BME280;8746;49.230;9.220;2023-01-31T06:04:35;100948.28;;;0.55;100.00
17260;BME280;8746;49.230;9.220;2023-01-31T06:07:01;100938.75;;;0.54;100.00
17260;BME280;8746;49.230;9.220;2023-01-31T06:09:26;100951.66;;;0.49;100.00
17260;BME280;8746;49.230;9.220;2023-01-31T06:11:52;100953.47;;;0.55;100.00
17260;BME280;8746;49.230;9.220;2023-01-31T06:14:17;100961.34;;;0.58;100.00
17260;BME280;8746;49.230;9.220;2023-01-31T06:16:42;100967.47;;;0.61;100.00
17260;BME280;8746;49.230;9.220;2023-01-31T06:19:08;100958.75;;;0.59;100.00
17260;BME280;8746;49.230;9.220;2023-01-31T06:21:33;100973.56;;;0.65;100.00
17260;BME280;8746;49.230;9.220;2023-01-31T06:23:59;100976.19;;;0.65;100.00
17260;BME280;8746;49.230;9.220;2023-01-31T06:26:24;100970.13;;;0.66;100.00
17260;BME280;8746;49.230;9.220;2023-01-31T06:28:49;100975.19;;;0.58;100.00
17260;BME280;8746;49.230;9.220;2023-01-31T06:31:15;100971.84;;;0.67;100.00
17260;BME280;8746;49.230;9.220;2023-01-31T06:33:40;100964.03;;;0.64;100.00
17260;BME280;8746;49.230;9.220;2023-01-31T06:36:06;100973.69;;;0.71;100.00
17260;BME280;8746;49.230;9.220;2023-01-31T06:38:32;100966.66;;;0.67;100.00
17260;BME280;8746;49.230;9.220;2023-01-31T06:40:57;100965.97;;;0.76;100.00
17260;BME280;8746;49.230;9.220;2023-01-31T06:43:23;100961.56;;;0.72;100.00
17260;BME280;8746;49.230;9.220;2023-01-31T06:45:48;100971.91;;;0.70;100.00
17260;BME280;8746;49.230;9.220;2023-01-31T06:48:14;100972.72;;;0.66;100.00
17260;BME280;8746;49.230;9.220;2023-01-31T06:50:40;100972.69;;;0.64;100.00
17260;BME280;8746;49.230;9.220;2023-01-31T06:53:05;100975.38;;;0.69;100.00
17260;BME280;8746;49.230;9.220;2023-01-31T06:55:31;100974.44;;;0.66;100.00
17260;BME280;8746;49.230;9.220;2023-01-31T06:57:56;100979.63;;;0.64;100.00
17260;BME280;8746;49.230;9.220;2023-01-31T07:00:22;100975.25;;;0.63;100.00
17260;BME280;8746;49.230;9.220;2023-01-31T07:02:50;100988.34;;;0.69;100.00
17260;BME280;8746;49.230;9.220;2023-01-31T07:05:16;101001.97;;;0.56;100.00
17260;BME280;8746;49.230;9.220;2023-01-31T07:07:42;100997.56;;;0.52;100.00
17260;BME280;8746;49.230;9.220;2023-01-31T07:10:08;101001.16;;;0.60;100.00
17260;BME280;8746;49.230;9.220;2023-01-31T07:12:33;101004.63;;;0.59;100.00
17260;BME280;8746;49.230;9.220;2023-01-31T07:14:59;100992.69;;;0.69;100.00
17260;BME280;8746;49.230;9.220;2023-01-31T07:17:24;100994.38;;;0.68;100.00
17260;BME280;8746;49.230;9.220;2023-01-31T07:19:50;100989.53;;;0.88;100.00
17260;BME280;8746;49.230;9.220;2023-01-31T07:22:15;100995.56;;;0.86;100.00
17260;BME280;8746;49.230;9.220;2023-01-31T07:24:40;100997.28;;;0.85;100.00
17260;BME280;8746;49.230;9.220;2023-01-31T07:27:06;100994.75;;;0.90;100.00
17260;BME280;8746;49.230;9.220;2023-01-31T07:29:32;100990.31;;;0.84;100.00
17260;BME280;8746;49.230;9.220;2023-01-31T07:31:57;100986.84;;;0.82;100.00
17260;BME280;8746;49.230;9.220;2023-01-31T07:34:22;100990.47;;;0.92;100.00
17260;BME280;8746;49.230;9.220;2023-01-31T07:36:49;100995.78;;;1.01;100.00
17260;BME280;8746;49.230;9.220;2023-01-31T07:39:14;101007.03;;;1.00;100.00
17260;BME280;8746;49.230;9.220;2023-01-31T07:41:42;101009.69;;;1.03;100.00
17260;BME280;8746;49.230;9.220;2023-01-31T07:44:07;101007.22;;;1.12;100.00
17260;BME280;8746;49.230;9.220;2023-01-31T07:46:36;101016.03;;;1.21;100.00
17260;BME280;8746;49.230;9.220;2023-01-31T07:49:02;101010.75;;;1.16;100.00
17260;BME280;8746;49.230;9.220;2023-01-31T07:51:27;101012.22;;;1.00;100.00
17260;BME280;8746;49.230;9.220;2023-01-31T07:53:52;101005.16;;;0.91;100.00
17260;BME280;8746;49.230;9.220;2023-01-31T07:56:20;101010.47;;;0.98;100.00
17260;BME280;8746;49.230;9.220;2023-01-31T07:58:47;101012.00;;;0.86;100.00
17260;BME280;8746;49.230;9.220;2023-01-31T08:01:18;101013.69;;;0.83;100.00
17260;BME280;8746;49.230;9.220;2023-01-31T08:04:03;101013.75;;;0.86;100.00
17260;BME280;8746;49.230;9.220;2023-01-31T08:06:29;101008.59;;;0.89;100.00
17260;BME280;8746;49.230;9.220;2023-01-31T08:08:55;101022.69;;;1.03;100.00
17260;BME280;8746;49.230;9.220;2023-01-31T08:11:21;101024.38;;;1.01;100.00
17260;BME280;8746;49.230;9.220;2023-01-31T08:13:47;101024.63;;;1.17;100.00
17260;BME280;8746;49.230;9.220;2023-01-31T08:16:13;101023.41;;;0.94;100.00
17260;BME280;8746;49.230;9.220;2023-01-31T08:18:38;101023.44;;;0.98;100.00
17260;BME280;8746;49.230;9.220;2023-01-31T08:21:05;101021.69;;;0.96;100.00
17260;BME280;8746;49.230;9.220;2023-01-31T08:23:31;101020.00;;;0.97;100.00
17260;BME280;8746;49.230;9.220;2023-01-31T08:26:04;101018.34;;;1.02;100.00
17260;BME280;8746;49.230;9.220;2023-01-31T08:28:31;101016.09;;;1.24;100.00
17260;BME280;8746;49.230;9.220;2023-01-31T08:30:57;101021.13;;;1.15;100.00
17260;BME280;8746;49.230;9.220;2023-01-31T08:33:22;101019.38;;;1.12;100.00
17260;BME280;8746;49.230;9.220;2023-01-31T08:35:48;101011.66;;;1.20;100.00
17260;BME280;8746;49.230;9.220;2023-01-31T08:38:14;101016.19;;;1.30;100.00
17260;BME280;8746;49.230;9.220;2023-01-31T08:40:39;101004.00;;;1.27;100.00
17260;BME280;8746;49.230;9.220;2023-01-31T08:43:07;101020.53;;;1.33;100.00
17260;BME280;8746;49.230;9.220;2023-01-31T08:45:32;101022.25;;;1.31;100.00
17260;BME280;8746;49.230;9.220;2023-01-31T08:47:59;101018.03;;;1.39;100.00
17260;BME280;8746;49.230;9.220;2023-01-31T08:50:26;101019.97;;;1.52;100.00
17260;BME280;8746;49.230;9.220;2023-01-31T08:52:57;101013.31;;;1.73;100.00
17260;BME280;8746;49.230;9.220;2023-01-31T08:55:23;101011.78;;;1.92;100.00
17260;BME280;8746;49.230;9.220;2023-01-31T08:57:50;101010.25;;;2.06;100.00
17260;BME280;8746;49.230;9.220;2023-01-31T09:00:16;101011.06;;;2.01;100.00
17260;BME280;8746;49.230;9.220;2023-01-31T09:02:41;101013.50;;;1.88;100.00
17260;BME280;8746;49.230;9.220;2023-01-31T09:05:07;101015.44;;;2.03;100.00
17260;BME280;8746;49.230;9.220;2023-01-31T09:07:33;101001.63;;;2.11;100.00
17260;BME280;8746;49.230;9.220;2023-01-31T09:09:59;100998.44;;;2.36;100.00
17260;BME280;8746;49.230;9.220;2023-01-31T09:12:24;100998.63;;;2.55;98.57
17260;BME280;8746;49.230;9.220;2023-01-31T09:14:50;100992.38;;;2.39;98.70
17260;BME280;8746;49.230;9.220;2023-01-31T09:17:16;100999.25;;;2.31;99.34
17260;BME280;8746;49.230;9.220;2023-01-31T09:19:42;101000.13;;;2.31;99.49
17260;BME280;8746;49.230;9.220;2023-01-31T09:22:07;101000.81;;;2.16;98.66
17260;BME280;8746;49.230;9.220;2023-01-31T09:24:32;101004.31;;;2.18;98.73
17260;BME280;8746;49.230;9.220;2023-01-31T09:26:58;101011.41;;;2.30;98.91
17260;BME280;8746;49.230;9.220;2023-01-31T09:29:23;101012.19;;;2.24;99.00
17260;BME280;8746;49.230;9.220;2023-01-31T09:31:50;101010.53;;;2.31;98.18
17260;BME280;8746;49.230;9.220;2023-01-31T09:34:16;101006.94;;;2.20;97.74
17260;BME280;8746;49.230;9.220;2023-01-31T09:36:41;101010.44;;;2.25;97.92
17260;BME280;8746;49.230;9.220;2023-01-31T09:39:08;101013.88;;;2.18;98.16
17260;BME280;8746;49.230;9.220;2023-01-31T09:44:38;101006.91;;;2.17;97.85
17260;BME280;8746;49.230;9.220;2023-01-31T09:49:47;101007.84;;;2.23;97.80
17260;BME280;8746;49.230;9.220;2023-01-31T09:52:14;101007.00;;;2.26;97.14
17260;BME280;8746;49.230;9.220;2023-01-31T09:54:40;101006.34;;;2.46;96.62
17260;BME280;8746;49.230;9.220;2023-01-31T09:57:15;101006.38;;;2.49;96.47
17260;BME280;8746;49.230;9.220;2023-01-31T09:59:48;101000.13;;;2.31;96.24
17260;BME280;8746;49.230;9.220;2023-01-31T10:08:00;100991.59;;;2.48;95.52
17260;BME280;8746;49.230;9.220;2023-01-31T10:10:36;101001.97;;;2.43;95.29
17260;BME280;8746;49.230;9.220;2023-01-31T10:13:15;101007.22;;;2.48;95.10
17260;BME280;8746;49.230;9.220;2023-01-31T10:15:47;101000.16;;;2.34;96.08
17260;BME280;8746;49.230;9.220;2023-01-31T10:18:26;100997.41;;;2.23;95.96
17260;BME280;8746;49.230;9.220;2023-01-31T10:21:00;101000.94;;;2.26;96.39
17260;BME280;8746;49.230;9.220;2023-01-31T10:23:56;101011.41;;;2.33;96.21
17260;BME280;8746;49.230;9.220;2023-01-31T10:26:36;101015.81;;;2.37;95.43
17260;BME280;8746;49.230;9.220;2023-01-31T10:29:27;101014.97;;;2.42;95.50
17260;BME280;8746;49.230;9.220;2023-01-31T10:32:01;101020.13;;;2.35;95.94
17260;BME280;8746;49.230;9.220;2023-01-31T10:34:39;101015.94;;;2.51;95.01
17260;BME280;8746;49.230;9.220;2023-01-31T10:37:12;101012.44;;;2.48;95.41
17260;BME280;8746;49.230;9.220;2023-01-31T10:39:51;101011.59;;;2.52;94.98
17260;BME280;8746;49.230;9.220;2023-01-31T10:42:28;101018.44;;;2.39;94.89
17260;BME280;8746;49.230;9.220;2023-01-31T10:45:14;101002.81;;;2.40;95.38
17260;BME280;8746;49.230;9.220;2023-01-31T10:47:51;100998.50;;;2.44;95.39
17260;BME280;8746;49.230;9.220;2023-01-31T10:50:18;100994.03;;;2.31;94.68
17260;BME280;8746;49.230;9.220;2023-01-31T10:55:37;100979.38;;;2.42;95.71
17260;BME280;8746;49.230;9.220;2023-01-31T10:58:18;100964.53;;;2.30;96.31
17260;BME280;8746;49.230;9.220;2023-01-31T11:00:46;100967.06;;;2.24;96.00
17260;BME280;8746;49.230;9.220;2023-01-31T11:03:12;100969.63;;;2.21;96.02
17260;BME280;8746;49.230;9.220;2023-01-31T11:05:51;100973.13;;;2.24;96.23
17260;BME280;8746;49.230;9.220;2023-01-31T11:08:41;100968.88;;;2.31;95.98
17260;BME280;8746;49.230;9.220;2023-01-31T11:11:10;100949.75;;;2.29;96.27
17260;BME280;8746;49.230;9.220;2023-01-31T11:13:38;100935.09;;;2.40;95.38
17260;BME280;8746;49.230;9.220;2023-01-31T11:16:07;100928.13;;;2.38;95.98
17260;BME280;8746;49.230;9.220;2023-01-31T11:18:43;100930.78;;;2.46;95.36
17260;BME280;8746;49.230;9.220;2023-01-31T11:21:19;100922.13;;;2.44;95.91
17260;BME280;8746;49.230;9.220;2023-01-31T11:23:45;100923.06;;;2.53;95.76
17260;BME280;8746;49.230;9.220;2023-01-31T11:26:11;100931.75;;;2.52;95.13
17260;BME280;8746;49.230;9.220;2023-01-31T11:28:40;100920.56;;;2.66;94.54
17260;BME280;8746;49.230;9.220;2023-01-31T11:31:16;100917.28;;;2.93;93.75
17260;BME280;8746;49.230;9.220;2023-01-31T11:34:04;100909.41;;;2.85;94.36
17260;BME280;8746;49.230;9.220;2023-01-31T11:36:43;100908.56;;;2.88;93.67
17260;BME280;8746;49.230;9.220;2023-01-31T11:41:47;100894.84;;;3.17;93.02
17260;BME280;8746;49.230;9.220;2023-01-31T11:44:15;100888.00;;;3.44;91.69
17260;BME280;8746;49.230;9.220;2023-01-31T11:46:47;100876.72;;;3.51;90.81
17260;BME280;8746;49.230;9.220;2023-01-31T11:49:20;100870.56;;;3.27;91.56
17260;BME280;8746;49.230;9.220;2023-01-31T11:51:47;100856.63;;;3.22;92.70
17260;BME280;8746;49.230;9.220;2023-01-31T11:54:19;100866.25;;;3.37;91.41
17260;BME280;8746;49.230;9.220;2023-01-31T11:56:46;100856.66;;;3.30;91.90
17260;BME280;8746;49.230;9.220;2023-01-31T11:59:16;100846.31;;;3.56;91.41
17260;BME280;8746;49.230;9.220;2023-01-31T12:01:46;100839.38;;;3.60;90.41
17260;BME280;8746;49.230;9.220;2023-01-31T12:04:25;100847.19;;;3.55;91.52
17260;BME280;8746;49.230;9.220;2023-01-31T12:07:04;100848.03;;;3.48;91.10
17260;BME280;8746;49.230;9.220;2023-01-31T12:09:40;100839.41;;;3.81;90.81
17260;BME280;8746;49.230;9.220;2023-01-31T12:14:49;100828.97;;;3.72;89.10
17260;BME280;8746;49.230;9.220;2023-01-31T12:17:16;100831.63;;;3.89;89.13
17260;BME280;8746;49.230;9.220;2023-01-31T12:25:13;100808.13;;;3.89;87.40
17260;BME280;8746;49.230;9.220;2023-01-31T12:28:03;100796.78;;;3.75;87.71
17260;BME280;8746;49.230;9.220;2023-01-31T12:31:05;100786.34;;;3.78;88.09
17260;BME280;8746;49.230;9.220;2023-01-31T12:36:21;100802.03;;;3.93;87.04
17260;BME280;8746;49.230;9.220;2023-01-31T12:44:37;100800.25;;;3.77;85.95
17260;BME280;8746;49.230;9.220;2023-01-31T12:47:29;100791.53;;;3.65;85.65
17260;BME280;8746;49.230;9.220;2023-01-31T12:58:44;100762.00;;;3.83;85.74
17260;BME280;8746;49.230;9.220;2023-01-31T13:01:18;100758.50;;;3.97;85.45
17260;BME280;8746;49.230;9.220;2023-01-31T13:04:01;100768.06;;;3.78;84.95
17260;BME280;8746;49.230;9.220;2023-01-31T13:06:37;100776.78;;;3.78;84.89
17260;BME280;8746;49.230;9.220;2023-01-31T13:09:10;100775.91;;;3.73;85.46
17260;BME280;8746;49.230;9.220;2023-01-31T13:11:49;100776.75;;;3.71;85.02
17260;BME280;8746;49.230;9.220;2023-01-31T13:14:20;100786.31;;;3.62;85.39
17260;BME280;8746;49.230;9.220;2023-01-31T13:16:49;100781.97;;;3.67;85.75
17260;BME280;8746;49.230;9.220;2023-01-31T13:19:31;100780.22;;;3.60;85.63
17260;BME280;8746;49.230;9.220;2023-01-31T13:22:02;100782.81;;;3.54;84.70
17260;BME280;8746;49.230;9.220;2023-01-31T13:24:36;100770.66;;;3.58;84.61
17260;BME280;8746;49.230;9.220;2023-01-31T13:27:10;100747.16;;;3.59;84.23
17260;BME280;8746;49.230;9.220;2023-01-31T13:29:59;100745.44;;;3.64;84.80
17260;BME280;8746;49.230;9.220;2023-01-31T13:35:02;100755.84;;;3.58;84.15
17260;BME280;8746;49.230;9.220;2023-01-31T13:37:32;100745.44;;;3.64;84.86
17260;BME280;8746;49.230;9.220;2023-01-31T13:40:21;100731.53;;;3.64;84.86
17260;BME280;8746;49.230;9.220;2023-01-31T13:42:48;100719.34;;;3.64;83.00
17260;BME280;8746;49.230;9.220;2023-01-31T13:45:28;100709.78;;;3.73;83.63
17260;BME280;8746;49.230;9.220;2023-01-31T13:48:00;100716.75;;;3.80;83.34
17260;BME280;8746;49.230;9.220;2023-01-31T13:50:40;100702.81;;;3.84;82.81
17260;BME280;8746;49.230;9.220;2023-01-31T13:53:13;100707.16;;;3.80;82.56
17260;BME280;8746;49.230;9.220;2023-01-31T13:55:43;100696.72;;;3.94;82.61
17260;BME280;8746;49.230;9.220;2023-01-31T13:58:21;100676.72;;;3.78;82.52
17260;BME280;8746;49.230;9.220;2023-01-31T14:01:10;100682.78;;;3.77;81.99
17260;BME280;8746;49.230;9.220;2023-01-31T14:14:50;100695.00;;;3.96;81.39
17260;BME280;8746;49.230;9.220;2023-01-31T14:27:22;100681.06;;;3.88;81.56
17260;BME280;8746;49.230;9.220;2023-01-31T14:35:23;100674.97;;;3.86;82.63
17260;BME280;8746;49.230;9.220;2023-01-31T14:38:14;100680.22;;;3.83;82.08
17260;BME280;8746;49.230;9.220;2023-01-31T14:59:33;100701.06;;;3.75;83.51
17260;BME280;8746;49.230;9.220;2023-01-31T15:04:44;100696.72;;;3.79;83.56
17260;BME280;8746;49.230;9.220;2023-01-31T15:07:18;100697.59;;;3.81;84.22
17260;BME280;8746;49.230;9.220;2023-01-31T15:09:43;100701.94;;;3.74;84.08
17260;BME280;8746;49.230;9.220;2023-01-31T15:15:36;100687.16;;;3.76;84.84
17260;BME280;8746;49.230;9.220;2023-01-31T15:18:17;100685.44;;;3.74;85.24
17260;BME280;8746;49.230;9.220;2023-01-31T15:20:48;100688.91;;;3.68;85.27